sensor_id;sensor_type;location;lat;lon;timestamp;P1;durP1;ratioP1;P2;durP2;ratioP2
6117;SDS011;3089;48.202;11.510;2022-11-04T00:01:24;8.27;;;3.23;;
6117;SDS011;3089;48.202;11.510;2022-11-04T00:03:53;6.50;;;2.80;;
6117;SDS011;3089;48.202;11.510;2022-11-04T00:06:21;7.33;;;2.90;;
6117;SDS011;3089;48.202;11.510;2022-11-04T00:08:49;5.90;;;3.00;;
6117;SDS011;3089;48.202;11.510;2022-11-04T00:11:17;9.27;;;3.47;;
6117;SDS011;3089;48.202;11.510;2022-11-04T00:14:03;5.90;;;2.93;;
6117;SDS011;3089;48.202;11.510;2022-11-04T00:16:33;7.50;;;3.10;;
6117;SDS011;3089;48.202;11.510;2022-11-04T00:19:20;4.70;;;2.63;;
6117;SDS011;3089;48.202;11.510;2022-11-04T00:21:48;7.77;;;2.57;;
6117;SDS011;3089;48.202;11.510;2022-11-04T00:24:34;8.63;;;3.30;;
6117;SDS011;3089;48.202;11.510;2022-11-04T00:27:20;5.93;;;2.50;;
6117;SDS011;3089;48.202;11.510;2022-11-04T00:30:06;5.97;;;2.00;;
6117;SDS011;3089;48.202;11.510;2022-11-04T00:32:36;4.00;;;2.10;;
6117;SDS011;3089;48.202;11.510;2022-11-04T00:35:22;8.00;;;2.13;;
6117;SDS011;3089;48.202;11.510;2022-11-04T00:37:50;5.23;;;1.93;;
6117;SDS011;3089;48.202;11.510;2022-11-04T00:40:18;4.03;;;1.57;;
6117;SDS011;3089;48.202;11.510;2022-11-04T00:42:46;3.20;;;1.40;;
6117;SDS011;3089;48.202;11.510;2022-11-04T00:45:14;7.40;;;2.47;;
6117;SDS011;3089;48.202;11.510;2022-11-04T00:47:42;8.40;;;1.67;;
6117;SDS011;3089;48.202;11.510;2022-11-04T00:50:09;3.83;;;1.77;;
6117;SDS011;3089;48.202;11.510;2022-11-04T00:52:39;5.87;;;1.70;;
6117;SDS011;3089;48.202;11.510;2022-11-04T00:55:07;4.43;;;1.40;;
6117;SDS011;3089;48.202;11.510;2022-11-04T00:57:35;3.70;;;1.67;;
6117;SDS011;3089;48.202;11.510;2022-11-04T01:00:03;2.87;;;0.80;;
6117;SDS011;3089;48.202;11.510;2022-11-04T01:02:32;3.87;;;1.50;;
6117;SDS011;3089;48.202;11.510;2022-11-04T01:05:00;3.30;;;1.37;;
6117;SDS011;3089;48.202;11.510;2022-11-04T01:07:28;5.23;;;1.90;;
6117;SDS011;3089;48.202;11.510;2022-11-04T01:09:58;2.97;;;1.23;;
6117;SDS011;3089;48.202;11.510;2022-11-04T01:12:26;3.83;;;1.63;;
6117;SDS011;3089;48.202;11.510;2022-11-04T01:14:53;3.40;;;1.30;;
6117;SDS011;3089;48.202;11.510;2022-11-04T01:17:21;2.63;;;1.23;;
6117;SDS011;3089;48.202;11.510;2022-11-04T01:19:49;3.00;;;1.10;;
6117;SDS011;3089;48.202;11.510;2022-11-04T01:22:17;4.10;;;1.30;;
6117;SDS011;3089;48.202;11.510;2022-11-04T01:24:45;4.67;;;1.60;;
6117;SDS011;3089;48.202;11.510;2022-11-04T01:27:14;9.00;;;1.60;;
6117;SDS011;3089;48.202;11.510;2022-11-04T01:29:42;3.13;;;1.50;;
6117;SDS011;3089;48.202;11.510;2022-11-04T01:32:09;5.30;;;1.47;;
6117;SDS011;3089;48.202;11.510;2022-11-04T01:34:37;4.17;;;1.40;;
6117;SDS011;3089;48.202;11.510;2022-11-04T01:37:09;3.40;;;1.30;;
6117;SDS011;3089;48.202;11.510;2022-11-04T01:39:37;4.97;;;1.57;;
6117;SDS011;3089;48.202;11.510;2022-11-04T01:42:04;4.10;;;1.83;;
6117;SDS011;3089;48.202;11.510;2022-11-04T01:44:46;3.60;;;1.40;;
6117;SDS011;3089;48.202;11.510;2022-11-04T01:47:26;4.60;;;1.40;;
6117;SDS011;3089;48.202;11.510;2022-11-04T01:49:59;3.07;;;1.30;;
6117;SDS011;3089;48.202;11.510;2022-11-04T01:52:31;7.27;;;1.83;;
6117;SDS011;3089;48.202;11.510;2022-11-04T01:55:04;2.30;;;0.93;;
6117;SDS011;3089;48.202;11.510;2022-11-04T01:57:37;2.80;;;1.20;;
6117;SDS011;3089;48.202;11.510;2022-11-04T02:00:09;2.50;;;0.90;;
6117;SDS011;3089;48.202;11.510;2022-11-04T02:02:49;2.53;;;0.90;;
6117;SDS011;3089;48.202;11.510;2022-11-04T02:05:23;3.17;;;1.07;;
6117;SDS011;3089;48.202;11.510;2022-11-04T02:07:51;4.27;;;1.00;;
6117;SDS011;3089;48.202;11.510;2022-11-04T02:10:24;5.93;;;1.20;;
6117;SDS011;3089;48.202;11.510;2022-11-04T02:12:53;3.17;;;1.40;;
6117;SDS011;3089;48.202;11.510;2022-11-04T02:15:26;3.13;;;1.30;;
6117;SDS011;3089;48.202;11.510;2022-11-04T02:18:15;2.40;;;1.00;;
6117;SDS011;3089;48.202;11.510;2022-11-04T02:20:59;2.33;;;0.80;;
6117;SDS011;3089;48.202;11.510;2022-11-04T02:23:58;2.83;;;1.10;;
6117;SDS011;3089;48.202;11.510;2022-11-04T02:29:55;3.37;;;1.20;;
6117;SDS011;3089;48.202;11.510;2022-11-04T02:32:32;2.57;;;0.80;;
6117;SDS011;3089;48.202;11.510;2022-11-04T02:35:10;4.07;;;1.10;;
6117;SDS011;3089;48.202;11.510;2022-11-04T02:37:46;2.90;;;0.90;;
6117;SDS011;3089;48.202;11.510;2022-11-04T02:40:21;2.77;;;0.90;;
6117;SDS011;3089;48.202;11.510;2022-11-04T02:42:57;7.10;;;0.90;;
6117;SDS011;3089;48.202;11.510;2022-11-04T02:45:32;3.17;;;0.87;;
6117;SDS011;3089;48.202;11.510;2022-11-04T02:48:04;2.30;;;0.87;;
6117;SDS011;3089;48.202;11.510;2022-11-04T02:50:38;5.43;;;1.20;;
6117;SDS011;3089;48.202;11.510;2022-11-04T02:53:13;2.23;;;0.73;;
6117;SDS011;3089;48.202;11.510;2022-11-04T02:55:44;2.60;;;0.70;;
6117;SDS011;3089;48.202;11.510;2022-11-04T02:58:17;2.57;;;0.80;;
6117;SDS011;3089;48.202;11.510;2022-11-04T03:00:50;3.30;;;0.80;;
6117;SDS011;3089;48.202;11.510;2022-11-04T03:03:20;3.43;;;0.83;;
6117;SDS011;3089;48.202;11.510;2022-11-04T03:05:52;2.17;;;0.90;;
6117;SDS011;3089;48.202;11.510;2022-11-04T03:08:24;2.57;;;0.97;;
6117;SDS011;3089;48.202;11.510;2022-11-04T03:10:58;3.10;;;1.00;;
6117;SDS011;3089;48.202;11.510;2022-11-04T03:13:31;3.00;;;1.03;;
6117;SDS011;3089;48.202;11.510;2022-11-04T03:16:06;2.50;;;0.70;;
6117;SDS011;3089;48.202;11.510;2022-11-04T03:18:41;2.33;;;0.70;;
6117;SDS011;3089;48.202;11.510;2022-11-04T03:21:14;2.33;;;0.70;;
6117;SDS011;3089;48.202;11.510;2022-11-04T03:23:43;2.90;;;0.90;;
6117;SDS011;3089;48.202;11.510;2022-11-04T03:26:12;2.20;;;0.67;;
6117;SDS011;3089;48.202;11.510;2022-11-04T03:28:49;2.47;;;0.80;;
6117;SDS011;3089;48.202;11.510;2022-11-04T03:31:25;2.97;;;0.83;;
6117;SDS011;3089;48.202;11.510;2022-11-04T03:34:00;2.83;;;0.90;;
6117;SDS011;3089;48.202;11.510;2022-11-04T03:36:28;3.17;;;1.20;;
6117;SDS011;3089;48.202;11.510;2022-11-04T03:38:56;2.10;;;0.60;;
6117;SDS011;3089;48.202;11.510;2022-11-04T03:41:26;2.20;;;0.73;;
6117;SDS011;3089;48.202;11.510;2022-11-04T03:44:00;2.33;;;0.70;;
6117;SDS011;3089;48.202;11.510;2022-11-04T03:46:29;3.40;;;0.73;;
6117;SDS011;3089;48.202;11.510;2022-11-04T03:48:58;2.87;;;0.90;;
6117;SDS011;3089;48.202;11.510;2022-11-04T03:51:26;2.90;;;0.90;;
6117;SDS011;3089;48.202;11.510;2022-11-04T03:53:54;2.50;;;0.70;;
6117;SDS011;3089;48.202;11.510;2022-11-04T03:56:28;3.67;;;0.80;;
6117;SDS011;3089;48.202;11.510;2022-11-04T03:59:12;2.20;;;0.70;;
6117;SDS011;3089;48.202;11.510;2022-11-04T04:01:56;2.73;;;0.73;;
6117;SDS011;3089;48.202;11.510;2022-11-04T04:04:31;2.17;;;0.70;;
6117;SDS011;3089;48.202;11.510;2022-11-04T04:07:03;3.13;;;0.70;;
6117;SDS011;3089;48.202;11.510;2022-11-04T04:09:37;2.10;;;0.63;;
6117;SDS011;3089;48.202;11.510;2022-11-04T04:12:11;2.47;;;0.80;;
6117;SDS011;3089;48.202;11.510;2022-11-04T04:14:47;2.00;;;0.53;;
6117;SDS011;3089;48.202;11.510;2022-11-04T04:17:20;2.53;;;0.80;;
6117;SDS011;3089;48.202;11.510;2022-11-04T04:19:55;2.20;;;0.80;;
6117;SDS011;3089;48.202;11.510;2022-11-04T04:22:27;2.60;;;0.70;;
6117;SDS011;3089;48.202;11.510;2022-11-04T04:24:58;7.73;;;0.70;;
6117;SDS011;3089;48.202;11.510;2022-11-04T04:27:48;2.20;;;0.60;;
6117;SDS011;3089;48.202;11.510;2022-11-04T04:30:17;2.23;;;0.77;;
6117;SDS011;3089;48.202;11.510;2022-11-04T04:32:47;2.60;;;0.77;;
6117;SDS011;3089;48.202;11.510;2022-11-04T04:35:18;1.93;;;0.60;;
6117;SDS011;3089;48.202;11.510;2022-11-04T04:38:15;2.60;;;0.70;;
6117;SDS011;3089;48.202;11.510;2022-11-04T04:41:05;2.60;;;0.70;;
6117;SDS011;3089;48.202;11.510;2022-11-04T04:43:54;2.40;;;0.60;;
6117;SDS011;3089;48.202;11.510;2022-11-04T04:46:40;2.93;;;1.00;;
6117;SDS011;3089;48.202;11.510;2022-11-04T04:49:12;2.20;;;0.70;;
6117;SDS011;3089;48.202;11.510;2022-11-04T04:51:40;2.17;;;0.67;;
6117;SDS011;3089;48.202;11.510;2022-11-04T04:54:10;2.13;;;0.70;;
6117;SDS011;3089;48.202;11.510;2022-11-04T04:56:38;2.20;;;0.70;;
6117;SDS011;3089;48.202;11.510;2022-11-04T04:59:06;2.30;;;0.80;;
6117;SDS011;3089;48.202;11.510;2022-11-04T05:01:34;2.20;;;0.63;;
6117;SDS011;3089;48.202;11.510;2022-11-04T05:04:02;3.00;;;0.70;;
6117;SDS011;3089;48.202;11.510;2022-11-04T05:06:31;2.03;;;0.57;;
6117;SDS011;3089;48.202;11.510;2022-11-04T05:08:59;2.10;;;0.70;;
6117;SDS011;3089;48.202;11.510;2022-11-04T05:11:27;3.77;;;0.87;;
6117;SDS011;3089;48.202;11.510;2022-11-04T05:13:54;2.37;;;0.70;;
6117;SDS011;3089;48.202;11.510;2022-11-04T05:16:22;2.10;;;0.60;;
6117;SDS011;3089;48.202;11.510;2022-11-04T05:18:50;2.10;;;0.70;;
6117;SDS011;3089;48.202;11.510;2022-11-04T05:21:18;2.47;;;0.70;;
6117;SDS011;3089;48.202;11.510;2022-11-04T05:23:47;2.73;;;0.70;;
6117;SDS011;3089;48.202;11.510;2022-11-04T05:26:15;2.17;;;0.60;;
6117;SDS011;3089;48.202;11.510;2022-11-04T05:28:43;2.00;;;0.60;;
6117;SDS011;3089;48.202;11.510;2022-11-04T05:31:11;2.10;;;0.70;;
6117;SDS011;3089;48.202;11.510;2022-11-04T05:33:39;2.10;;;0.67;;
6117;SDS011;3089;48.202;11.510;2022-11-04T05:36:08;2.43;;;0.73;;
6117;SDS011;3089;48.202;11.510;2022-11-04T05:38:37;2.20;;;0.80;;
6117;SDS011;3089;48.202;11.510;2022-11-04T05:41:07;2.00;;;0.70;;
6117;SDS011;3089;48.202;11.510;2022-11-04T05:43:36;2.77;;;0.63;;
6117;SDS011;3089;48.202;11.510;2022-11-04T05:46:04;2.30;;;0.80;;
6117;SDS011;3089;48.202;11.510;2022-11-04T05:48:32;3.27;;;0.80;;
6117;SDS011;3089;48.202;11.510;2022-11-04T05:51:05;2.07;;;0.70;;
6117;SDS011;3089;48.202;11.510;2022-11-04T05:53:33;3.23;;;0.70;;
6117;SDS011;3089;48.202;11.510;2022-11-04T05:56:01;2.03;;;0.60;;
6117;SDS011;3089;48.202;11.510;2022-11-04T05:58:30;2.40;;;0.60;;
6117;SDS011;3089;48.202;11.510;2022-11-04T06:01:09;6.40;;;0.90;;
6117;SDS011;3089;48.202;11.510;2022-11-04T06:03:38;2.10;;;0.60;;
6117;SDS011;3089;48.202;11.510;2022-11-04T06:06:06;3.80;;;0.87;;
6117;SDS011;3089;48.202;11.510;2022-11-04T06:08:34;5.63;;;0.80;;
6117;SDS011;3089;48.202;11.510;2022-11-04T06:11:07;3.03;;;1.00;;
6117;SDS011;3089;48.202;11.510;2022-11-04T06:13:36;2.90;;;0.80;;
6117;SDS011;3089;48.202;11.510;2022-11-04T06:16:04;2.33;;;0.70;;
6117;SDS011;3089;48.202;11.510;2022-11-04T06:18:32;2.47;;;0.70;;
6117;SDS011;3089;48.202;11.510;2022-11-04T06:21:07;2.27;;;0.70;;
6117;SDS011;3089;48.202;11.510;2022-11-04T06:23:36;2.93;;;0.70;;
6117;SDS011;3089;48.202;11.510;2022-11-04T06:26:04;2.97;;;0.70;;
6117;SDS011;3089;48.202;11.510;2022-11-04T06:28:32;2.97;;;0.70;;
6117;SDS011;3089;48.202;11.510;2022-11-04T06:31:02;2.20;;;0.80;;
6117;SDS011;3089;48.202;11.510;2022-11-04T06:33:31;2.87;;;0.80;;
6117;SDS011;3089;48.202;11.510;2022-11-04T06:36:03;2.90;;;0.90;;
6117;SDS011;3089;48.202;11.510;2022-11-04T06:38:33;2.20;;;0.80;;
6117;SDS011;3089;48.202;11.510;2022-11-04T06:41:03;3.70;;;0.80;;
6117;SDS011;3089;48.202;11.510;2022-11-04T06:43:36;2.97;;;0.90;;
6117;SDS011;3089;48.202;11.510;2022-11-04T06:46:05;2.80;;;0.93;;
6117;SDS011;3089;48.202;11.510;2022-11-04T06:48:50;3.37;;;0.87;;
6117;SDS011;3089;48.202;11.510;2022-11-04T06:51:18;4.40;;;1.00;;
6117;SDS011;3089;48.202;11.510;2022-11-04T06:53:46;2.40;;;0.73;;
6117;SDS011;3089;48.202;11.510;2022-11-04T06:56:13;2.70;;;0.70;;
6117;SDS011;3089;48.202;11.510;2022-11-04T06:58:41;3.37;;;1.00;;
6117;SDS011;3089;48.202;11.510;2022-11-04T07:01:10;3.77;;;0.80;;
6117;SDS011;3089;48.202;11.510;2022-11-04T07:03:47;2.10;;;0.67;;
6117;SDS011;3089;48.202;11.510;2022-11-04T07:06:16;2.43;;;0.80;;
6117;SDS011;3089;48.202;11.510;2022-11-04T07:08:44;2.53;;;0.77;;
6117;SDS011;3089;48.202;11.510;2022-11-04T07:11:12;5.67;;;1.03;;
6117;SDS011;3089;48.202;11.510;2022-11-04T07:13:41;2.27;;;0.70;;
6117;SDS011;3089;48.202;11.510;2022-11-04T07:16:09;2.60;;;0.93;;
6117;SDS011;3089;48.202;11.510;2022-11-04T07:18:39;4.00;;;0.80;;
6117;SDS011;3089;48.202;11.510;2022-11-04T07:21:07;2.60;;;0.90;;
6117;SDS011;3089;48.202;11.510;2022-11-04T07:23:35;2.33;;;0.80;;
6117;SDS011;3089;48.202;11.510;2022-11-04T07:26:04;2.53;;;0.97;;
6117;SDS011;3089;48.202;11.510;2022-11-04T07:28:33;2.30;;;0.70;;
6117;SDS011;3089;48.202;11.510;2022-11-04T07:31:02;3.83;;;1.43;;
6117;SDS011;3089;48.202;11.510;2022-11-04T07:33:32;2.83;;;0.80;;
6117;SDS011;3089;48.202;11.510;2022-11-04T07:36:03;2.43;;;0.90;;
6117;SDS011;3089;48.202;11.510;2022-11-04T07:38:32;3.23;;;0.90;;
6117;SDS011;3089;48.202;11.510;2022-11-04T07:41:00;7.73;;;1.17;;
6117;SDS011;3089;48.202;11.510;2022-11-04T07:43:28;3.70;;;1.10;;
6117;SDS011;3089;48.202;11.510;2022-11-04T07:45:59;3.07;;;1.07;;
6117;SDS011;3089;48.202;11.510;2022-11-04T07:48:28;3.90;;;1.37;;
6117;SDS011;3089;48.202;11.510;2022-11-04T07:50:57;2.57;;;0.80;;
6117;SDS011;3089;48.202;11.510;2022-11-04T07:53:27;3.30;;;1.13;;
6117;SDS011;3089;48.202;11.510;2022-11-04T07:55:56;4.03;;;1.00;;
6117;SDS011;3089;48.202;11.510;2022-11-04T07:58:24;3.37;;;1.27;;
6117;SDS011;3089;48.202;11.510;2022-11-04T08:00:56;5.30;;;1.17;;
6117;SDS011;3089;48.202;11.510;2022-11-04T08:03:25;2.93;;;1.13;;
6117;SDS011;3089;48.202;11.510;2022-11-04T08:05:54;3.67;;;1.10;;
6117;SDS011;3089;48.202;11.510;2022-11-04T08:08:23;3.70;;;1.17;;
6117;SDS011;3089;48.202;11.510;2022-11-04T08:10:52;3.20;;;1.00;;
6117;SDS011;3089;48.202;11.510;2022-11-04T08:13:20;4.67;;;0.93;;
6117;SDS011;3089;48.202;11.510;2022-11-04T08:15:48;3.00;;;1.00;;
6117;SDS011;3089;48.202;11.510;2022-11-04T08:18:15;3.20;;;0.90;;
6117;SDS011;3089;48.202;11.510;2022-11-04T08:20:47;4.80;;;0.90;;
6117;SDS011;3089;48.202;11.510;2022-11-04T08:23:15;3.23;;;0.90;;
6117;SDS011;3089;48.202;11.510;2022-11-04T08:25:45;3.53;;;1.20;;
6117;SDS011;3089;48.202;11.510;2022-11-04T08:28:13;2.87;;;1.30;;
6117;SDS011;3089;48.202;11.510;2022-11-04T08:30:52;4.50;;;0.90;;
6117;SDS011;3089;48.202;11.510;2022-11-04T08:33:22;3.40;;;0.90;;
6117;SDS011;3089;48.202;11.510;2022-11-04T08:35:50;2.10;;;0.70;;
6117;SDS011;3089;48.202;11.510;2022-11-04T08:38:18;2.10;;;0.70;;
6117;SDS011;3089;48.202;11.510;2022-11-04T08:40:47;3.70;;;0.97;;
6117;SDS011;3089;48.202;11.510;2022-11-04T08:43:20;3.23;;;1.00;;
6117;SDS011;3089;48.202;11.510;2022-11-04T08:45:48;2.93;;;0.70;;
6117;SDS011;3089;48.202;11.510;2022-11-04T08:48:16;2.20;;;0.80;;
6117;SDS011;3089;48.202;11.510;2022-11-04T08:50:47;2.37;;;0.70;;
6117;SDS011;3089;48.202;11.510;2022-11-04T08:53:15;2.43;;;0.80;;
6117;SDS011;3089;48.202;11.510;2022-11-04T08:55:43;2.87;;;1.10;;
6117;SDS011;3089;48.202;11.510;2022-11-04T08:58:12;3.67;;;1.00;;
6117;SDS011;3089;48.202;11.510;2022-11-04T09:00:40;2.33;;;0.90;;
6117;SDS011;3089;48.202;11.510;2022-11-04T09:03:08;3.33;;;0.80;;
6117;SDS011;3089;48.202;11.510;2022-11-04T09:05:37;3.10;;;0.90;;
6117;SDS011;3089;48.202;11.510;2022-11-04T09:08:09;2.30;;;0.70;;
6117;SDS011;3089;48.202;11.510;2022-11-04T09:10:39;2.33;;;0.73;;
6117;SDS011;3089;48.202;11.510;2022-11-04T09:13:08;2.53;;;0.90;;
6117;SDS011;3089;48.202;11.510;2022-11-04T09:15:38;3.33;;;0.87;;
6117;SDS011;3089;48.202;11.510;2022-11-04T09:18:06;2.30;;;0.80;;
6117;SDS011;3089;48.202;11.510;2022-11-04T09:20:34;3.70;;;0.90;;
6117;SDS011;3089;48.202;11.510;2022-11-04T09:23:03;3.17;;;0.80;;
6117;SDS011;3089;48.202;11.510;2022-11-04T09:25:32;2.33;;;0.70;;
6117;SDS011;3089;48.202;11.510;2022-11-04T09:28:00;2.70;;;0.80;;
6117;SDS011;3089;48.202;11.510;2022-11-04T09:30:29;3.33;;;1.40;;
6117;SDS011;3089;48.202;11.510;2022-11-04T09:32:58;4.00;;;1.10;;
6117;SDS011;3089;48.202;11.510;2022-11-04T09:35:26;2.67;;;1.00;;
6117;SDS011;3089;48.202;11.510;2022-11-04T09:37:54;4.50;;;1.10;;
6117;SDS011;3089;48.202;11.510;2022-11-04T09:40:22;2.47;;;0.80;;
6117;SDS011;3089;48.202;11.510;2022-11-04T09:42:54;5.00;;;1.37;;
6117;SDS011;3089;48.202;11.510;2022-11-04T09:45:37;2.43;;;0.87;;
6117;SDS011;3089;48.202;11.510;2022-11-04T09:48:09;2.50;;;0.80;;
6117;SDS011;3089;48.202;11.510;2022-11-04T09:50:50;3.60;;;1.30;;
6117;SDS011;3089;48.202;11.510;2022-11-04T09:53:21;4.30;;;1.20;;
6117;SDS011;3089;48.202;11.510;2022-11-04T09:55:53;2.97;;;1.00;;
6117;SDS011;3089;48.202;11.510;2022-11-04T09:58:23;2.67;;;0.90;;
6117;SDS011;3089;48.202;11.510;2022-11-04T10:00:53;3.57;;;0.83;;
6117;SDS011;3089;48.202;11.510;2022-11-04T10:03:34;6.17;;;1.03;;
6117;SDS011;3089;48.202;11.510;2022-11-04T10:06:22;3.63;;;0.90;;
6117;SDS011;3089;48.202;11.510;2022-11-04T10:08:59;2.67;;;0.93;;
6117;SDS011;3089;48.202;11.510;2022-11-04T10:11:36;6.90;;;0.90;;
6117;SDS011;3089;48.202;11.510;2022-11-04T10:14:15;5.27;;;0.90;;
6117;SDS011;3089;48.202;11.510;2022-11-04T10:17:03;2.40;;;0.80;;
6117;SDS011;3089;48.202;11.510;2022-11-04T10:19:47;2.50;;;1.00;;
6117;SDS011;3089;48.202;11.510;2022-11-04T10:22:29;2.50;;;0.77;;
6117;SDS011;3089;48.202;11.510;2022-11-04T10:25:00;2.60;;;0.90;;
6117;SDS011;3089;48.202;11.510;2022-11-04T10:27:35;3.07;;;1.00;;
6117;SDS011;3089;48.202;11.510;2022-11-04T10:30:06;2.63;;;0.80;;
6117;SDS011;3089;48.202;11.510;2022-11-04T10:32:43;3.60;;;1.20;;
6117;SDS011;3089;48.202;11.510;2022-11-04T10:35:24;4.00;;;0.90;;
6117;SDS011;3089;48.202;11.510;2022-11-04T10:37:57;3.20;;;1.03;;
6117;SDS011;3089;48.202;11.510;2022-11-04T10:40:36;5.13;;;1.07;;
6117;SDS011;3089;48.202;11.510;2022-11-04T10:43:06;3.10;;;1.00;;
6117;SDS011;3089;48.202;11.510;2022-11-04T10:45:42;3.10;;;1.10;;
6117;SDS011;3089;48.202;11.510;2022-11-04T10:48:18;2.83;;;1.03;;
6117;SDS011;3089;48.202;11.510;2022-11-04T10:50:53;4.10;;;1.10;;
6117;SDS011;3089;48.202;11.510;2022-11-04T10:53:22;3.10;;;1.20;;
6117;SDS011;3089;48.202;11.510;2022-11-04T10:55:53;3.37;;;1.10;;
6117;SDS011;3089;48.202;11.510;2022-11-04T10:58:28;3.43;;;1.17;;
6117;SDS011;3089;48.202;11.510;2022-11-04T11:00:58;2.63;;;0.87;;
6117;SDS011;3089;48.202;11.510;2022-11-04T11:03:46;3.43;;;1.07;;
6117;SDS011;3089;48.202;11.510;2022-11-04T11:06:18;3.60;;;1.30;;
6117;SDS011;3089;48.202;11.510;2022-11-04T11:08:51;4.90;;;1.33;;
6117;SDS011;3089;48.202;11.510;2022-11-04T11:11:34;3.10;;;1.30;;
6117;SDS011;3089;48.202;11.510;2022-11-04T11:14:04;2.73;;;1.13;;
6117;SDS011;3089;48.202;11.510;2022-11-04T11:16:42;5.03;;;1.03;;
6117;SDS011;3089;48.202;11.510;2022-11-04T11:19:15;7.63;;;0.90;;
6117;SDS011;3089;48.202;11.510;2022-11-04T11:21:47;3.47;;;1.10;;
6117;SDS011;3089;48.202;11.510;2022-11-04T11:24:19;2.80;;;1.10;;
6117;SDS011;3089;48.202;11.510;2022-11-04T11:26:48;5.90;;;1.10;;
6117;SDS011;3089;48.202;11.510;2022-11-04T11:29:20;3.50;;;1.10;;
6117;SDS011;3089;48.202;11.510;2022-11-04T11:31:50;2.47;;;0.90;;
6117;SDS011;3089;48.202;11.510;2022-11-04T11:34:21;3.33;;;1.10;;
6117;SDS011;3089;48.202;11.510;2022-11-04T11:36:54;2.60;;;0.90;;
6117;SDS011;3089;48.202;11.510;2022-11-04T11:39:23;3.67;;;1.20;;
6117;SDS011;3089;48.202;11.510;2022-11-04T11:41:55;5.27;;;1.30;;
6117;SDS011;3089;48.202;11.510;2022-11-04T11:44:26;2.60;;;1.00;;
6117;SDS011;3089;48.202;11.510;2022-11-04T11:46:58;4.03;;;1.27;;
6117;SDS011;3089;48.202;11.510;2022-11-04T11:49:29;3.07;;;0.93;;
6117;SDS011;3089;48.202;11.510;2022-11-04T11:55:00;2.80;;;0.93;;
6117;SDS011;3089;48.202;11.510;2022-11-04T11:57:36;2.53;;;1.00;;
6117;SDS011;3089;48.202;11.510;2022-11-04T12:00:31;3.70;;;1.20;;
6117;SDS011;3089;48.202;11.510;2022-11-04T12:03:10;3.00;;;1.20;;
6117;SDS011;3089;48.202;11.510;2022-11-04T12:05:44;3.80;;;0.90;;
6117;SDS011;3089;48.202;11.510;2022-11-04T12:08:45;3.33;;;1.30;;
6117;SDS011;3089;48.202;11.510;2022-11-04T12:11:51;3.17;;;1.10;;
6117;SDS011;3089;48.202;11.510;2022-11-04T12:14:31;9.03;;;2.17;;
6117;SDS011;3089;48.202;11.510;2022-11-04T12:17:17;5.27;;;1.80;;
6117;SDS011;3089;48.202;11.510;2022-11-04T12:19:57;5.30;;;1.80;;
6117;SDS011;3089;48.202;11.510;2022-11-04T12:22:42;3.30;;;1.50;;
6117;SDS011;3089;48.202;11.510;2022-11-04T12:25:18;3.57;;;1.37;;
6117;SDS011;3089;48.202;11.510;2022-11-04T12:27:50;4.80;;;1.47;;
6117;SDS011;3089;48.202;11.510;2022-11-04T12:30:25;4.07;;;1.10;;
6117;SDS011;3089;48.202;11.510;2022-11-04T12:33:06;5.50;;;1.60;;
6117;SDS011;3089;48.202;11.510;2022-11-04T12:35:47;2.93;;;0.93;;
6117;SDS011;3089;48.202;11.510;2022-11-04T12:38:27;14.43;;;1.30;;
6117;SDS011;3089;48.202;11.510;2022-11-04T12:41:17;4.20;;;1.13;;
6117;SDS011;3089;48.202;11.510;2022-11-04T12:44:15;2.80;;;1.00;;
6117;SDS011;3089;48.202;11.510;2022-11-04T12:46:55;3.17;;;0.93;;
6117;SDS011;3089;48.202;11.510;2022-11-04T12:49:42;3.17;;;1.23;;
6117;SDS011;3089;48.202;11.510;2022-11-04T12:52:42;2.73;;;0.90;;
6117;SDS011;3089;48.202;11.510;2022-11-04T12:55:40;4.27;;;1.20;;
6117;SDS011;3089;48.202;11.510;2022-11-04T12:58:20;3.27;;;1.30;;
6117;SDS011;3089;48.202;11.510;2022-11-04T13:00:59;2.57;;;0.97;;
6117;SDS011;3089;48.202;11.510;2022-11-04T13:03:32;3.10;;;1.10;;
6117;SDS011;3089;48.202;11.510;2022-11-04T13:06:08;4.27;;;1.10;;
6117;SDS011;3089;48.202;11.510;2022-11-04T13:08:39;3.53;;;1.10;;
6117;SDS011;3089;48.202;11.510;2022-11-04T13:11:11;5.27;;;2.20;;
6117;SDS011;3089;48.202;11.510;2022-11-04T13:13:55;4.27;;;1.50;;
6117;SDS011;3089;48.202;11.510;2022-11-04T13:16:27;2.93;;;1.10;;
6117;SDS011;3089;48.202;11.510;2022-11-04T13:18:56;12.33;;;1.50;;
6117;SDS011;3089;48.202;11.510;2022-11-04T13:21:26;3.90;;;1.03;;
6117;SDS011;3089;48.202;11.510;2022-11-04T13:23:57;4.80;;;1.10;;
6117;SDS011;3089;48.202;11.510;2022-11-04T13:26:30;3.83;;;1.10;;
6117;SDS011;3089;48.202;11.510;2022-11-04T13:29:00;3.03;;;1.20;;
6117;SDS011;3089;48.202;11.510;2022-11-04T13:31:42;4.80;;;1.40;;
6117;SDS011;3089;48.202;11.510;2022-11-04T13:34:17;3.30;;;1.20;;
6117;SDS011;3089;48.202;11.510;2022-11-04T13:37:01;5.33;;;1.67;;
6117;SDS011;3089;48.202;11.510;2022-11-04T13:39:37;3.70;;;1.37;;
6117;SDS011;3089;48.202;11.510;2022-11-04T13:42:16;5.88;;;2.03;;
6117;SDS011;3089;48.202;11.510;2022-11-04T13:45:10;7.03;;;2.80;;
6117;SDS011;3089;48.202;11.510;2022-11-04T13:47:43;7.43;;;2.40;;
6117;SDS011;3089;48.202;11.510;2022-11-04T13:50:30;13.13;;;6.47;;
6117;SDS011;3089;48.202;11.510;2022-11-04T13:53:01;8.00;;;3.90;;
6117;SDS011;3089;48.202;11.510;2022-11-04T13:55:30;4.73;;;2.17;;
6117;SDS011;3089;48.202;11.510;2022-11-04T13:58:00;3.60;;;1.40;;
6117;SDS011;3089;48.202;11.510;2022-11-04T14:00:31;4.47;;;1.60;;
6117;SDS011;3089;48.202;11.510;2022-11-04T14:03:00;5.27;;;1.73;;
6117;SDS011;3089;48.202;11.510;2022-11-04T14:06:16;6.10;;;2.00;;
6117;SDS011;3089;48.202;11.510;2022-11-04T14:15:03;5.20;;;2.30;;
6117;SDS011;3089;48.202;11.510;2022-11-04T14:20:27;4.60;;;2.37;;
6117;SDS011;3089;48.202;11.510;2022-11-04T14:22:58;5.73;;;1.93;;
6117;SDS011;3089;48.202;11.510;2022-11-04T14:25:31;3.80;;;1.50;;
6117;SDS011;3089;48.202;11.510;2022-11-04T14:28:14;4.87;;;1.90;;
6117;SDS011;3089;48.202;11.510;2022-11-04T14:30:45;5.50;;;2.00;;
6117;SDS011;3089;48.202;11.510;2022-11-04T14:36:22;5.10;;;2.10;;
6117;SDS011;3089;48.202;11.510;2022-11-04T14:38:53;6.87;;;2.80;;
6117;SDS011;3089;48.202;11.510;2022-11-04T14:41:29;19.17;;;8.30;;
6117;SDS011;3089;48.202;11.510;2022-11-04T14:44:18;27.57;;;12.40;;
6117;SDS011;3089;48.202;11.510;2022-11-04T14:46:51;41.40;;;17.73;;
6117;SDS011;3089;48.202;11.510;2022-11-04T14:49:36;26.50;;;11.20;;
6117;SDS011;3089;48.202;11.510;2022-11-04T14:52:12;21.87;;;8.90;;
6117;SDS011;3089;48.202;11.510;2022-11-04T14:54:44;8.60;;;2.60;;
6117;SDS011;3089;48.202;11.510;2022-11-04T14:57:13;5.87;;;2.40;;
6117;SDS011;3089;48.202;11.510;2022-11-04T14:59:43;5.33;;;2.20;;
6117;SDS011;3089;48.202;11.510;2022-11-04T15:02:12;5.20;;;1.90;;
6117;SDS011;3089;48.202;11.510;2022-11-04T15:04:46;5.50;;;2.33;;
6117;SDS011;3089;48.202;11.510;2022-11-04T15:07:31;4.40;;;2.27;;
6117;SDS011;3089;48.202;11.510;2022-11-04T15:10:00;5.23;;;2.70;;
6117;SDS011;3089;48.202;11.510;2022-11-04T15:12:30;4.80;;;2.30;;
6117;SDS011;3089;48.202;11.510;2022-11-04T15:15:31;4.17;;;1.87;;
6117;SDS011;3089;48.202;11.510;2022-11-04T15:18:04;5.13;;;1.60;;
6117;SDS011;3089;48.202;11.510;2022-11-04T15:20:35;10.67;;;3.13;;
6117;SDS011;3089;48.202;11.510;2022-11-04T15:23:06;4.80;;;1.90;;
6117;SDS011;3089;48.202;11.510;2022-11-04T15:25:46;6.03;;;2.13;;
6117;SDS011;3089;48.202;11.510;2022-11-04T15:28:16;5.60;;;2.03;;
6117;SDS011;3089;48.202;11.510;2022-11-04T15:31:02;5.80;;;2.00;;
6117;SDS011;3089;48.202;11.510;2022-11-04T15:33:35;4.63;;;1.30;;
6117;SDS011;3089;48.202;11.510;2022-11-04T15:36:09;4.80;;;1.30;;
6117;SDS011;3089;48.202;11.510;2022-11-04T15:38:43;5.13;;;1.57;;
6117;SDS011;3089;48.202;11.510;2022-11-04T15:41:13;4.93;;;1.40;;
6117;SDS011;3089;48.202;11.510;2022-11-04T15:44:04;3.23;;;1.20;;
6117;SDS011;3089;48.202;11.510;2022-11-04T15:46:42;4.10;;;1.30;;
6117;SDS011;3089;48.202;11.510;2022-11-04T15:49:18;2.60;;;1.13;;
6117;SDS011;3089;48.202;11.510;2022-11-04T15:51:50;3.37;;;1.10;;
6117;SDS011;3089;48.202;11.510;2022-11-04T15:54:20;3.10;;;1.40;;
6117;SDS011;3089;48.202;11.510;2022-11-04T15:56:52;4.30;;;1.43;;